createdAt,value
2023-03-10T00:01:30.057Z,2.90
2023-03-10T00:03:59.033Z,2.80
2023-03-10T00:06:28.336Z,2.80
2023-03-10T00:08:55.714Z,2.70
2023-03-10T00:11:22.971Z,2.60
2023-03-10T00:13:50.370Z,2.50
2023-03-10T00:16:20.631Z,2.60
2023-03-10T00:18:48.334Z,2.70
2023-03-10T00:21:17.447Z,2.80
2023-03-10T00:23:44.718Z,2.80
2023-03-10T00:26:16.357Z,2.70
2023-03-10T00:28:43.629Z,2.50
2023-03-10T00:31:13.651Z,2.20
2023-03-10T00:33:40.968Z,2.10
2023-03-10T00:36:14.336Z,1.90
2023-03-10T00:38:42.836Z,1.70
2023-03-10T00:41:15.351Z,1.50
2023-03-10T00:43:42.730Z,1.30
2023-03-10T00:46:10.446Z,1.40
2023-03-10T00:48:37.964Z,1.40
2023-03-10T00:51:06.040Z,1.40
2023-03-10T00:53:35.666Z,1.40
2023-03-10T00:56:06.081Z,1.40
2023-03-10T00:58:34.228Z,1.40
2023-03-10T01:01:02.640Z,1.40
2023-03-10T01:03:30.358Z,1.30
2023-03-10T01:05:58.054Z,1.30
2023-03-10T01:08:25.170Z,1.20
2023-03-10T01:10:52.309Z,1.20
2023-03-10T01:13:20.348Z,1.20
2023-03-10T01:15:51.160Z,1.20
2023-03-10T01:18:19.880Z,1.20
2023-03-10T01:20:48.099Z,1.20
2023-03-10T01:23:20.934Z,1.30
2023-03-10T01:25:50.093Z,1.40
2023-03-10T01:28:19.634Z,1.50
2023-03-10T01:30:46.925Z,1.70
2023-03-10T01:33:15.375Z,1.80
2023-03-10T01:35:42.942Z,1.90
2023-03-10T01:38:11.542Z,1.90
2023-03-10T01:40:38.971Z,2.00
2023-03-10T01:43:19.947Z,2.00
2023-03-10T01:45:47.958Z,2.00
2023-03-10T01:48:17.952Z,2.00
2023-03-10T01:50:48.171Z,2.00
2023-03-10T01:53:18.085Z,2.00
2023-03-10T01:55:50.708Z,2.10
2023-03-10T01:58:20.882Z,2.10
2023-03-10T02:00:48.302Z,2.10
2023-03-10T02:03:33.049Z,2.10
2023-03-10T02:06:05.223Z,2.10
2023-03-10T02:08:44.097Z,2.10
2023-03-10T02:11:15.279Z,2.00
2023-03-10T02:13:42.796Z,1.90
2023-03-10T02:16:10.235Z,2.00
2023-03-10T02:18:37.385Z,2.10
2023-03-10T02:21:23.186Z,2.20
2023-03-10T02:24:01.673Z,2.30
2023-03-10T02:26:56.443Z,2.30
2023-03-10T02:30:00.045Z,2.10
2023-03-10T02:32:35.235Z,2.10
2023-03-10T02:35:03.843Z,1.90
2023-03-10T02:37:34.515Z,1.90
2023-03-10T02:40:04.851Z,1.80
2023-03-10T02:42:35.451Z,1.80
2023-03-10T02:45:04.685Z,1.80
2023-03-10T02:47:32.998Z,1.80
2023-03-10T02:49:59.984Z,1.80
2023-03-10T02:52:39.975Z,1.90
2023-03-10T02:55:07.453Z,2.00
2023-03-10T02:57:34.544Z,2.10
2023-03-10T03:00:01.785Z,2.20
2023-03-10T03:02:31.219Z,2.20
2023-03-10T03:04:58.237Z,2.30
2023-03-10T03:07:25.365Z,2.30
2023-03-10T03:09:52.360Z,2.30
2023-03-10T03:12:19.810Z,2.40
2023-03-10T03:14:47.483Z,2.50
2023-03-10T03:17:14.931Z,2.50
2023-03-10T03:19:42.622Z,2.60
2023-03-10T03:22:09.818Z,2.60
2023-03-10T03:24:36.799Z,2.70
2023-03-10T03:27:05.359Z,2.70
2023-03-10T03:29:32.528Z,2.50
2023-03-10T03:32:00.011Z,2.50
2023-03-10T03:34:30.651Z,2.50
2023-03-10T03:37:00.629Z,2.50
2023-03-10T03:39:37.686Z,2.60
2023-03-10T03:42:07.760Z,2.60
2023-03-10T03:44:43.716Z,2.60
2023-03-10T03:47:14.605Z,2.70
2023-03-10T03:49:41.965Z,2.70
2023-03-10T03:52:10.157Z,2.70
2023-03-10T03:54:37.219Z,2.70
2023-03-10T03:57:04.173Z,2.80
2023-03-10T03:59:31.412Z,2.80
2023-03-10T04:01:58.456Z,2.90
2023-03-10T04:04:26.121Z,3.00
2023-03-10T04:06:54.038Z,3.10
2023-03-10T04:09:21.386Z,3.10
2023-03-10T04:11:48.578Z,3.10
2023-03-10T04:14:15.820Z,3.10
2023-03-10T04:16:43.078Z,3.20
2023-03-10T04:19:11.402Z,3.40
2023-03-10T04:21:42.098Z,3.50
2023-03-10T04:24:09.835Z,3.60
2023-03-10T04:26:37.313Z,3.70
2023-03-10T04:29:05.231Z,3.80
2023-03-10T04:31:34.982Z,4.00
2023-03-10T04:34:03.457Z,4.10
2023-03-10T04:36:31.598Z,4.20
2023-03-10T04:39:01.168Z,4.20
2023-03-10T04:41:31.120Z,4.30
2023-03-10T04:43:58.737Z,4.40
2023-03-10T04:46:25.672Z,4.40
2023-03-10T04:48:53.157Z,4.50
2023-03-10T04:51:20.261Z,4.50
2023-03-10T04:53:50.793Z,4.70
2023-03-10T04:56:18.269Z,4.80
2023-03-10T04:58:45.412Z,4.90
2023-03-10T05:01:15.173Z,4.90
2023-03-10T05:03:46.889Z,4.90
2023-03-10T05:06:16.920Z,5.00
2023-03-10T05:08:48.712Z,5.00
2023-03-10T05:11:17.975Z,5.00
2023-03-10T05:13:45.093Z,5.00
2023-03-10T05:16:16.617Z,5.10
2023-03-10T05:18:46.043Z,5.20
2023-03-10T05:21:15.012Z,5.30
2023-03-10T05:23:44.426Z,5.30
2023-03-10T05:26:13.564Z,5.30
2023-03-10T05:28:40.673Z,5.40
2023-03-10T05:31:14.346Z,5.40
2023-03-10T05:33:44.337Z,5.50
2023-03-10T05:36:14.686Z,5.60
2023-03-10T05:38:43.697Z,5.60
2023-03-10T05:41:16.150Z,5.40
2023-03-10T05:43:45.354Z,5.30
2023-03-10T05:46:15.224Z,5.30
2023-03-10T05:48:46.405Z,5.40
2023-03-10T05:51:13.803Z,5.30
2023-03-10T05:53:42.251Z,5.30
2023-03-10T05:56:17.571Z,5.20
2023-03-10T05:58:47.702Z,5.00
2023-03-10T06:01:18.314Z,4.70
2023-03-10T06:03:45.363Z,4.60
2023-03-10T06:06:12.778Z,4.40
2023-03-10T06:08:39.765Z,4.30
2023-03-10T06:11:06.817Z,4.10
2023-03-10T06:13:34.007Z,4.30
2023-03-10T06:16:03.755Z,4.30
2023-03-10T06:18:30.756Z,4.40
2023-03-10T06:20:57.775Z,4.50
2023-03-10T06:23:26.688Z,4.50
2023-03-10T06:26:02.374Z,4.40
2023-03-10T06:28:33.312Z,4.40
2023-03-10T06:31:12.364Z,4.40
2023-03-10T06:33:39.269Z,4.40
2023-03-10T06:36:06.781Z,4.50
2023-03-10T06:38:33.873Z,4.60
2023-03-10T06:41:00.764Z,4.60
2023-03-10T06:43:27.733Z,4.80
2023-03-10T06:45:54.726Z,5.00
2023-03-10T06:48:21.638Z,5.00
2023-03-10T06:50:50.036Z,5.10
2023-03-10T06:53:19.774Z,5.20
2023-03-10T06:56:01.702Z,5.30
2023-03-10T06:58:29.403Z,5.50
2023-03-10T07:00:56.926Z,5.80
2023-03-10T07:03:26.290Z,6.10
2023-03-10T07:05:53.611Z,6.30
2023-03-10T07:08:44.193Z,6.60
2023-03-10T07:11:11.000Z,7.40
2023-03-10T07:13:38.690Z,7.70
2023-03-10T07:16:06.147Z,7.70
2023-03-10T07:18:33.209Z,7.80
2023-03-10T07:21:00.462Z,7.90
2023-03-10T07:23:27.733Z,8.10
2023-03-10T07:25:56.806Z,8.30
2023-03-10T07:28:25.442Z,8.10
2023-03-10T07:30:52.693Z,7.80
2023-03-10T07:33:19.781Z,7.90
2023-03-10T07:35:46.945Z,7.80
2023-03-10T07:38:13.994Z,7.60
2023-03-10T07:40:41.576Z,7.30
2023-03-10T07:43:12.031Z,7.40
2023-03-10T07:45:38.886Z,7.30
2023-03-10T07:48:06.355Z,7.00
2023-03-10T07:50:33.524Z,6.80
2023-03-10T07:53:00.521Z,6.70
2023-03-10T07:55:27.485Z,6.50
2023-03-10T07:57:56.896Z,6.40
2023-03-10T08:00:24.000Z,6.40
2023-03-10T08:02:53.625Z,6.30
2023-03-10T08:05:20.788Z,6.20
2023-03-10T08:07:47.770Z,6.10
2023-03-10T08:10:14.718Z,6.00
2023-03-10T08:12:41.897Z,6.10
2023-03-10T08:15:09.490Z,6.20
2023-03-10T08:17:36.909Z,6.30
2023-03-10T08:20:06.579Z,6.20
2023-03-10T08:22:33.793Z,6.30
2023-03-10T08:25:01.012Z,6.30
2023-03-10T08:27:29.484Z,6.40
2023-03-10T08:29:56.465Z,6.30
2023-03-10T08:32:23.458Z,6.30
2023-03-10T08:34:50.559Z,6.30
2023-03-10T08:37:20.293Z,6.60
2023-03-10T08:39:47.458Z,6.80
2023-03-10T08:42:14.467Z,6.90
2023-03-10T08:44:42.021Z,7.50
2023-03-10T08:47:09.266Z,7.90
2023-03-10T08:49:36.938Z,8.20
2023-03-10T08:52:04.403Z,8.40
2023-03-10T08:54:34.144Z,8.70
2023-03-10T08:57:01.852Z,9.10
2023-03-10T08:59:29.022Z,9.40
2023-03-10T09:01:56.143Z,9.90
2023-03-10T09:04:23.202Z,10.30
2023-03-10T09:06:50.210Z,10.80
2023-03-10T09:09:17.339Z,11.00
2023-03-10T09:11:44.593Z,11.10
2023-03-10T09:14:12.231Z,11.20
2023-03-10T09:16:40.622Z,11.10
2023-03-10T09:19:08.259Z,10.80
2023-03-10T09:21:35.732Z,10.80
2023-03-10T09:24:03.308Z,11.10
2023-03-10T09:26:31.045Z,11.20
2023-03-10T09:28:58.324Z,11.60
2023-03-10T09:31:30.455Z,11.60
2023-03-10T09:33:57.556Z,11.40
2023-03-10T09:36:24.907Z,11.30
2023-03-10T09:38:52.130Z,11.40
2023-03-10T09:41:55.777Z,11.40
2023-03-10T09:44:31.035Z,11.20
2023-03-10T09:46:58.015Z,10.80
2023-03-10T09:49:52.177Z,10.40
2023-03-10T09:52:46.363Z,10.00
2023-03-10T09:55:27.597Z,9.70
2023-03-10T09:57:56.726Z,9.50
2023-03-10T10:00:37.397Z,9.40
2023-03-10T10:03:14.660Z,9.30
2023-03-10T10:05:42.901Z,9.00
2023-03-10T10:08:29.244Z,8.90
2023-03-10T10:10:58.730Z,8.90
2023-03-10T10:13:30.842Z,8.90
2023-03-10T10:16:24.436Z,8.80
2023-03-10T10:19:02.643Z,8.70
2023-03-10T10:21:42.334Z,8.60
2023-03-10T10:24:10.331Z,8.70
2023-03-10T10:26:37.213Z,8.50
2023-03-10T10:29:18.721Z,8.60
2023-03-10T10:32:11.934Z,8.80
2023-03-10T10:34:41.199Z,8.80
2023-03-10T10:37:23.233Z,8.90
2023-03-10T10:39:52.949Z,9.00
2023-03-10T10:42:26.308Z,9.10
2023-03-10T10:45:01.489Z,9.00
2023-03-10T10:47:30.472Z,9.00
2023-03-10T10:50:25.602Z,9.00
2023-03-10T10:53:14.611Z,9.00
2023-03-10T10:55:43.063Z,9.00
2023-03-10T10:58:27.652Z,8.80
2023-03-10T11:01:04.022Z,8.90
2023-03-10T11:03:37.214Z,8.90
2023-03-10T11:06:27.888Z,9.20
2023-03-10T11:09:19.498Z,9.30
2023-03-10T11:12:22.000Z,9.40
2023-03-10T11:15:20.463Z,9.30
2023-03-10T11:17:53.598Z,9.50
2023-03-10T11:20:34.497Z,9.60
2023-03-10T11:23:33.824Z,9.70
2023-03-10T11:26:31.226Z,10.10
2023-03-10T11:28:58.236Z,10.40
2023-03-10T11:31:40.346Z,10.50
2023-03-10T11:34:19.963Z,10.50
2023-03-10T11:37:16.000Z,10.40
2023-03-10T11:40:07.659Z,10.50
2023-03-10T11:42:48.463Z,10.60
2023-03-10T11:45:27.775Z,10.80
2023-03-10T11:48:14.202Z,10.80
2023-03-10T11:50:59.751Z,10.90
2023-03-10T11:53:55.381Z,11.10
2023-03-10T11:56:23.984Z,11.30
2023-03-10T11:59:08.637Z,11.30
2023-03-10T12:01:58.160Z,11.40
2023-03-10T12:04:41.113Z,11.60
2023-03-10T12:07:19.032Z,11.60
2023-03-10T12:09:54.743Z,11.70
2023-03-10T12:12:42.491Z,11.50
2023-03-10T12:15:20.282Z,11.50
2023-03-10T12:17:49.385Z,11.50
2023-03-10T12:20:19.093Z,11.70
2023-03-10T12:23:11.448Z,11.80
2023-03-10T12:25:38.525Z,11.70
2023-03-10T12:28:18.149Z,11.70
2023-03-10T12:31:08.866Z,12.00
2023-03-10T12:33:39.624Z,11.90
2023-03-10T12:36:17.003Z,11.80
2023-03-10T12:38:54.764Z,12.00
2023-03-10T12:41:31.996Z,11.80
2023-03-10T12:44:36.970Z,11.80
2023-03-10T12:47:36.039Z,11.60
2023-03-10T12:50:22.371Z,11.50
2023-03-10T12:53:17.397Z,11.40
2023-03-10T12:56:04.378Z,11.50
2023-03-10T12:58:31.671Z,11.60
2023-03-10T13:06:43.825Z,11.10
2023-03-10T13:09:37.757Z,11.00
2023-03-10T13:12:29.483Z,11.10
2023-03-10T13:18:33.042Z,10.80
2023-03-10T13:22:03.621Z,10.70
2023-03-10T13:24:41.682Z,10.70
2023-03-10T13:27:25.093Z,10.60
2023-03-10T13:29:59.634Z,10.60
2023-03-10T13:32:27.645Z,10.40
2023-03-10T13:34:56.585Z,10.30
2023-03-10T13:37:25.864Z,10.30
2023-03-10T13:39:52.936Z,10.10
2023-03-10T13:42:42.818Z,10.10
2023-03-10T13:45:21.772Z,10.10
2023-03-10T13:47:49.641Z,10.20
2023-03-10T13:51:07.262Z,10.20
2023-03-10T14:00:41.421Z,10.10
2023-03-10T14:03:31.443Z,10.10
2023-03-10T14:06:57.748Z,10.10
2023-03-10T14:10:03.371Z,10.20
2023-03-10T14:45:28.426Z,10.10
2023-03-10T14:47:57.857Z,10.10
2023-03-10T14:50:26.942Z,10.10
2023-03-10T14:52:53.829Z,10.10
2023-03-10T14:55:21.024Z,10.10
2023-03-10T14:57:54.469Z,10.20
2023-03-10T15:00:23.725Z,10.20
2023-03-10T15:02:53.092Z,10.00
2023-03-10T15:05:22.534Z,9.90
2023-03-10T15:07:49.565Z,9.80
2023-03-10T15:10:20.122Z,9.80
2023-03-10T15:12:49.030Z,9.60
2023-03-10T15:15:18.607Z,9.60
2023-03-10T15:17:46.130Z,9.40
2023-03-10T15:20:18.587Z,9.10
2023-03-10T15:22:46.692Z,9.10
2023-03-10T15:25:15.927Z,9.00
2023-03-10T15:27:43.983Z,8.80
2023-03-10T15:30:26.700Z,9.00
2023-03-10T15:32:54.486Z,9.00
2023-03-10T15:35:22.892Z,8.60
2023-03-10T15:37:54.029Z,8.60
2023-03-10T15:40:26.650Z,8.60
2023-03-10T15:42:56.312Z,8.50
2023-03-10T15:45:24.352Z,8.70
2023-03-10T15:47:51.741Z,8.80
2023-03-10T15:53:39.434Z,8.80
2023-03-10T15:56:08.762Z,8.80
2023-03-10T15:58:36.206Z,8.70
2023-03-10T16:01:19.835Z,8.50
2023-03-10T16:03:47.826Z,8.50
2023-03-10T16:06:16.088Z,8.40
2023-03-10T16:08:43.415Z,8.30
2023-03-10T16:11:19.346Z,8.20
2023-03-10T16:13:49.611Z,8.10
2023-03-10T16:16:23.492Z,8.00
2023-03-10T16:18:51.291Z,7.80
2023-03-10T16:21:22.475Z,7.80
2023-03-10T16:23:49.905Z,8.00
2023-03-10T16:26:21.104Z,8.00
2023-03-10T16:28:50.549Z,7.90
2023-03-10T16:31:20.113Z,7.80
2023-03-10T16:33:48.609Z,8.00
2023-03-10T16:36:18.696Z,7.80
2023-03-10T16:38:46.525Z,7.80
2023-03-10T16:41:14.316Z,7.70
2023-03-10T16:43:41.793Z,7.80
2023-03-10T16:46:25.395Z,7.70
2023-03-10T16:48:54.253Z,7.70
2023-03-10T16:51:27.893Z,7.60
2023-03-10T16:53:58.452Z,7.70
2023-03-10T16:56:26.993Z,7.80
2023-03-10T16:58:54.714Z,7.90
2023-03-10T17:01:24.361Z,8.00
2023-03-10T17:03:52.437Z,7.90
2023-03-10T17:06:22.758Z,8.00
2023-03-10T17:08:51.566Z,8.00
2023-03-10T17:11:23.337Z,7.80
2023-03-10T17:13:53.931Z,7.90
2023-03-10T17:16:24.475Z,7.90
2023-03-10T17:18:51.749Z,7.90
2023-03-10T17:21:23.880Z,7.90
2023-03-10T17:23:53.710Z,7.90
2023-03-10T17:26:21.897Z,7.90
2023-03-10T17:28:51.149Z,8.00
2023-03-10T17:31:27.144Z,8.00
2023-03-10T17:34:05.889Z,8.10
2023-03-10T17:36:33.192Z,8.00
2023-03-10T17:39:02.182Z,7.90
2023-03-10T17:41:30.735Z,7.80
2023-03-10T17:44:01.188Z,7.60
2023-03-10T17:46:29.614Z,7.60
2023-03-10T17:48:57.676Z,7.50
2023-03-10T17:51:30.570Z,7.60
2023-03-10T17:53:59.431Z,7.70
2023-03-10T17:56:27.326Z,7.60
2023-03-10T17:58:58.069Z,7.50
2023-03-10T18:01:31.934Z,7.20
2023-03-10T18:04:00.362Z,6.90
2023-03-10T18:06:32.795Z,6.60
2023-03-10T18:09:02.088Z,6.40
2023-03-10T18:11:29.412Z,6.40
2023-03-10T18:13:56.618Z,6.40
2023-03-10T18:16:26.254Z,6.50
2023-03-10T18:18:53.650Z,6.40
2023-03-10T18:21:21.404Z,6.30
2023-03-10T18:23:49.686Z,6.30
2023-03-10T18:26:19.742Z,6.20
2023-03-10T18:28:47.143Z,6.10
2023-03-10T18:31:23.222Z,6.00
2023-03-10T18:33:50.437Z,5.80
2023-03-10T18:36:18.839Z,5.90
2023-03-10T18:38:47.519Z,5.80
2023-03-10T18:41:14.750Z,5.70
2023-03-10T18:43:45.296Z,5.90
2023-03-10T18:46:12.557Z,6.10
2023-03-10T18:48:39.608Z,5.90
2023-03-10T18:51:11.906Z,6.00
2023-03-10T18:53:39.524Z,6.10
2023-03-10T18:56:07.400Z,5.90
2023-03-10T19:01:11.717Z,5.30
2023-03-10T19:03:50.533Z,5.20
2023-03-10T19:06:17.545Z,5.20
2023-03-10T19:08:44.552Z,4.80
2023-03-10T19:11:12.269Z,4.80
2023-03-10T19:13:47.550Z,5.00
2023-03-10T19:16:14.606Z,5.20
2023-03-10T19:18:41.659Z,5.10
2023-03-10T19:21:09.993Z,5.20
2023-03-10T19:23:37.146Z,5.20
2023-03-10T19:26:07.762Z,5.10
2023-03-10T19:28:36.638Z,4.90
2023-03-10T19:31:09.714Z,4.60
2023-03-10T19:35:30.320Z,4.60
2023-03-10T19:37:22.393Z,4.50
2023-03-10T19:39:49.509Z,4.40
2023-03-10T19:42:16.830Z,4.40
2023-03-10T19:44:44.080Z,4.50
2023-03-10T19:47:11.342Z,4.50
2023-03-10T19:49:39.547Z,4.50
2023-03-10T19:52:06.564Z,4.50
2023-03-10T19:54:33.584Z,4.60
2023-03-10T19:57:00.637Z,4.60
2023-03-10T19:59:28.165Z,4.50
2023-03-10T20:01:56.215Z,4.40
2023-03-10T20:04:23.338Z,4.40
2023-03-10T20:06:53.118Z,4.40
2023-03-10T20:09:20.412Z,4.50
2023-03-10T20:11:47.373Z,4.60
2023-03-10T20:14:14.319Z,4.60
2023-03-10T20:16:41.431Z,4.60
2023-03-10T20:19:08.505Z,4.50
2023-03-10T20:21:38.501Z,4.40
2023-03-10T20:24:08.570Z,4.40
2023-03-10T20:26:35.773Z,4.50
2023-03-10T20:29:02.805Z,4.50
2023-03-10T20:31:34.055Z,4.40
2023-03-10T20:34:02.548Z,4.40
2023-03-10T20:36:33.797Z,4.30
2023-03-10T20:39:00.984Z,4.30
2023-03-10T20:41:28.072Z,4.20
2023-03-10T20:43:55.462Z,4.20
2023-03-10T20:46:23.019Z,4.20
2023-03-10T20:48:53.470Z,4.10
2023-03-10T20:51:23.528Z,4.30
2023-03-10T20:53:52.018Z,4.30
2023-03-10T20:56:19.445Z,4.50
2023-03-10T20:58:46.502Z,4.60
2023-03-10T21:01:27.250Z,4.50
2023-03-10T21:03:54.881Z,4.50
2023-03-10T21:06:23.738Z,4.40
2023-03-10T21:08:51.387Z,4.40
2023-03-10T21:11:18.979Z,4.50
2023-03-10T21:13:45.941Z,4.20
2023-03-10T21:16:13.423Z,4.10
2023-03-10T21:18:40.532Z,4.00
2023-03-10T21:21:13.862Z,3.70
2023-03-10T21:23:41.773Z,3.40
2023-03-10T21:26:14.307Z,3.30
2023-03-10T21:28:42.182Z,3.40
2023-03-10T21:31:10.060Z,3.10
2023-03-10T21:33:37.135Z,3.20
2023-03-10T21:36:26.514Z,3.10
2023-03-10T21:38:53.558Z,2.90
2023-03-10T21:41:27.283Z,3.10
2023-03-10T21:43:55.845Z,3.10
2023-03-10T21:46:24.154Z,3.10
2023-03-10T21:48:52.452Z,3.00
2023-03-10T21:51:26.725Z,2.70
2023-03-10T21:54:00.205Z,2.50
2023-03-10T21:56:29.005Z,2.60
2023-03-10T21:58:57.016Z,2.70
2023-03-10T22:01:27.088Z,2.80
2023-03-10T22:03:54.677Z,3.00
2023-03-10T22:06:22.185Z,3.10
2023-03-10T22:08:49.421Z,3.10
2023-03-10T22:11:38.388Z,2.80
2023-03-10T22:14:06.364Z,2.60
2023-03-10T22:16:33.411Z,2.30
2023-03-10T22:19:00.386Z,1.90
2023-03-10T22:21:27.357Z,1.90
2023-03-10T22:23:54.417Z,1.80
2023-03-10T22:26:21.526Z,1.50
2023-03-10T22:28:48.495Z,1.40
2023-03-10T22:31:16.078Z,1.30
2023-03-10T22:33:43.079Z,1.00
2023-03-10T22:36:24.292Z,1.10
2023-03-10T22:38:51.309Z,1.20
2023-03-10T22:41:18.351Z,1.20
2023-03-10T22:43:45.354Z,1.10
2023-03-10T22:46:15.242Z,1.00
2023-03-10T22:48:43.458Z,1.00
2023-03-10T22:51:15.047Z,1.00
2023-03-10T22:53:42.088Z,1.00
2023-03-10T22:56:09.209Z,0.70
2023-03-10T22:58:37.660Z,0.10
2023-03-10T23:01:04.778Z,-0.40
2023-03-10T23:03:34.112Z,-0.50
2023-03-10T23:06:05.927Z,-0.50
2023-03-10T23:08:33.573Z,-0.30
2023-03-10T23:11:00.677Z,-0.20
2023-03-10T23:13:31.018Z,0.10
2023-03-10T23:16:01.437Z,0.00
2023-03-10T23:18:28.599Z,-0.10
2023-03-10T23:21:05.169Z,-0.20
2023-03-10T23:23:32.230Z,-0.40
2023-03-10T23:25:59.185Z,-0.60
2023-03-10T23:28:26.534Z,-0.60
2023-03-10T23:30:54.443Z,-0.60
2023-03-10T23:33:23.933Z,-0.70
2023-03-10T23:35:54.280Z,-0.70
2023-03-10T23:38:23.402Z,-0.80
2023-03-10T23:40:51.088Z,-0.70
2023-03-10T23:43:18.355Z,-0.70
2023-03-10T23:45:45.733Z,-0.50
2023-03-10T23:48:18.668Z,-0.70
2023-03-10T23:50:47.022Z,-0.70
2023-03-10T23:53:16.403Z,-0.70
2023-03-10T23:55:45.457Z,-0.80
2023-03-10T23:58:14.172Z,-0.90
